Terminal Aerodrome Forecast
Issued by NWS

Home | Current Version | Previous Version | Text Only | Print | Product List | Glossary On
Versions: 1 2 3 4 5 6 7 8 9 10 11 12 13 14 15 16 17
000
FTUS45 KPSR 012323
TAFBLH
TAF
KBLH 012323Z 0200/0224 08007KT P6SM FEW120 FEW200
     FM020200 34008KT P6SM FEW140 SCT250
     FM021200 VRB04KT P6SM FEW250
     FM022100 18008KT P6SM FEW120=

USA.gov is the U.S. government's official web portal to all federal, state and local government web resources and services.